Time;durP1;ratioP1;P1;durP2;ratioP2;P2;SDS_P1;SDS_P2;PMS_P1;PMS_P2;Temp;Humidity;BMP_temperature;BMP_pressure;BME280_temperature;BME280_humidity;BME280_pressure;Samples;Min_cycle;Max_cycle;Signal;HPM_P1;HPM_P2
2021/12/08 00:02:09;;;;;;;2.35;1.92;;;2.30;99.90;;;;;;4987638;28;20600;-76
2021/12/08 00:04:36;;;;;;;5.22;2.55;;;2.30;99.90;;;;;;4987799;28;20204;-76
2021/12/08 00:07:04;;;;;;;4.25;2.63;;;2.30;99.90;;;;;;4979464;28;20714;-75
2021/12/08 00:09:47;;;;;;;4.00;2.60;;;2.30;99.90;;;;;;4993959;28;20277;-76
2021/12/08 00:15:01;;;;;;;3.80;2.75;;;2.40;99.90;;;;;;4976996;28;20344;-76
2021/12/08 00:17:28;;;;;;;2.97;2.40;;;2.40;99.90;;;;;;4980627;28;20235;-76
2021/12/08 00:20:00;;;;;;;4.32;2.63;;;2.40;99.90;;;;;;4988310;28;20294;-76
2021/12/08 00:22:27;;;;;;;2.28;2.03;;;2.40;99.90;;;;;;4987007;28;20231;-76
2021/12/08 00:24:54;;;;;;;3.53;2.50;;;2.40;99.90;;;;;;4986233;28;20517;-76
2021/12/08 00:27:21;;;;;;;2.88;2.40;;;2.40;99.90;;;;;;4986442;28;20226;-76
2021/12/08 00:29:49;;;;;;;3.70;2.22;;;2.40;99.90;;;;;;4994060;28;20199;-76
2021/12/08 00:32:20;;;;;;;2.97;2.25;;;2.30;99.90;;;;;;4991560;28;20544;-76
2021/12/08 00:34:47;;;;;;;3.47;2.30;;;2.30;99.90;;;;;;4987732;28;20632;-76
2021/12/08 00:37:13;;;;;;;3.75;2.25;;;2.20;99.90;;;;;;4975893;28;20250;-76
2021/12/08 00:39:40;;;;;;;3.05;2.10;;;2.20;99.90;;;;;;4988252;28;20230;-76
2021/12/08 00:42:07;;;;;;;2.58;2.10;;;2.10;99.90;;;;;;4980523;28;20220;-76
2021/12/08 00:44:34;;;;;;;2.40;2.03;;;2.10;99.90;;;;;;4978847;28;20191;-76
2021/12/08 00:47:01;;;;;;;2.60;2.28;;;2.10;99.90;;;;;;4981125;28;20208;-76
2021/12/08 00:49:29;;;;;;;4.97;2.60;;;2.00;99.90;;;;;;4975273;28;20206;-76
2021/12/08 00:51:56;;;;;;;4.65;2.70;;;2.10;99.90;;;;;;4983486;28;20202;-76
2021/12/08 00:54:23;;;;;;;3.22;2.40;;;2.10;99.90;;;;;;4991531;28;20187;-76
2021/12/08 00:56:57;;;;;;;2.85;2.33;;;2.10;99.90;;;;;;4993792;28;20201;-76
2021/12/08 00:59:24;;;;;;;3.67;2.70;;;2.10;99.90;;;;;;4993828;28;20282;-76
2021/12/08 01:01:51;;;;;;;4.00;2.63;;;2.10;99.90;;;;;;4991049;28;20713;-77
2021/12/08 01:04:18;;;;;;;2.72;2.25;;;2.00;99.90;;;;;;4980633;28;20196;-77
2021/12/08 01:06:47;;;;;;;2.75;2.47;;;2.00;99.90;;;;;;4991645;28;20290;-77
2021/12/08 01:09:16;;;;;;;2.72;2.53;;;1.90;99.90;;;;;;4992082;28;20215;-77
2021/12/08 01:11:43;;;;;;;3.13;2.63;;;1.90;99.90;;;;;;4990603;28;20226;-77
2021/12/08 01:14:10;;;;;;;4.43;2.92;;;1.90;99.90;;;;;;4975838;28;20256;-77
2021/12/08 01:16:37;;;;;;;4.18;2.50;;;1.90;99.90;;;;;;4988396;28;20200;-76
2021/12/08 01:19:04;;;;;;;2.50;2.30;;;1.70;99.90;;;;;;4977646;28;20224;-77
2021/12/08 01:21:32;;;;;;;3.33;2.50;;;1.70;99.90;;;;;;4989668;28;20199;-77
2021/12/08 01:24:00;;;;;;;2.88;2.30;;;1.70;99.90;;;;;;4992842;28;20199;-76
2021/12/08 01:26:27;;;;;;;3.70;2.60;;;1.60;99.90;;;;;;4989520;28;20209;-77
2021/12/08 01:28:56;;;;;;;3.50;3.20;;;1.60;99.90;;;;;;4991000;28;20219;-77
2021/12/08 01:31:24;;;;;;;4.63;3.40;;;1.60;99.90;;;;;;4977107;28;20675;-78
2021/12/08 01:33:51;;;;;;;7.75;3.40;;;1.70;99.90;;;;;;4991939;28;20286;-77
2021/12/08 01:36:18;;;;;;;4.85;3.65;;;1.70;99.90;;;;;;4980679;28;20210;-77
2021/12/08 01:38:45;;;;;;;3.65;3.20;;;1.70;99.90;;;;;;4993172;28;20329;-77
2021/12/08 01:41:14;;;;;;;4.15;3.40;;;1.60;99.90;;;;;;4992279;28;20618;-77
2021/12/08 01:45:56;;;;;;;5.43;3.60;;;1.60;99.90;;;;;;4991863;28;20295;-77
2021/12/08 01:46:29;;;;;;;4.38;3.38;;;1.60;99.90;;;;;;4985265;28;20210;-78
2021/12/08 01:48:57;;;;;;;4.65;3.35;;;1.60;99.90;;;;;;4974058;28;20720;-78
2021/12/08 01:51:25;;;;;;;3.25;2.80;;;1.50;99.90;;;;;;4977072;28;20200;-78
2021/12/08 01:53:55;;;;;;;3.28;3.00;;;1.50;99.90;;;;;;4981894;28;20202;-77
2021/12/08 01:56:28;;;;;;;3.20;3.00;;;1.50;99.90;;;;;;4992278;28;20234;-77
2021/12/08 01:58:55;;;;;;;3.80;3.40;;;1.50;99.90;;;;;;4979049;28;20959;-77
2021/12/08 02:01:26;;;;;;;4.28;2.90;;;1.50;99.90;;;;;;4984477;28;20196;-77
2021/12/08 02:03:53;;;;;;;4.30;2.80;;;1.50;99.90;;;;;;4984220;28;20195;-77
2021/12/08 02:06:21;;;;;;;4.85;2.90;;;1.40;99.90;;;;;;4991626;28;20607;-77
2021/12/08 02:08:51;;;;;;;4.13;2.83;;;1.40;99.90;;;;;;4973955;28;20299;-77
2021/12/08 02:11:19;;;;;;;4.70;2.97;;;1.50;99.90;;;;;;4984530;28;20546;-77
2021/12/08 02:13:51;;;;;;;3.30;3.00;;;1.50;99.90;;;;;;4984841;28;20622;-77
2021/12/08 02:16:19;;;;;;;3.97;2.92;;;1.50;99.90;;;;;;4982762;28;20209;-77
2021/12/08 02:18:49;;;;;;;3.70;3.30;;;1.50;99.90;;;;;;4979945;28;20220;-77
2021/12/08 02:21:24;;;;;;;3.60;3.30;;;1.50;99.90;;;;;;4985085;28;20211;-78
2021/12/08 02:23:52;;;;;;;3.95;3.50;;;1.50;99.90;;;;;;4973342;28;20204;-77
2021/12/08 02:26:19;;;;;;;4.80;3.42;;;1.50;99.90;;;;;;4981630;28;20203;-77
2021/12/08 02:28:46;;;;;;;4.65;3.80;;;1.50;99.90;;;;;;4986115;28;20212;-77
2021/12/08 02:31:18;;;;;;;5.20;3.42;;;1.60;99.90;;;;;;4979185;28;20222;-78
2021/12/08 02:47:52;;;;;;;4.25;3.30;;;1.80;99.90;;;;;;4984438;28;20223;-77
2021/12/08 02:50:20;;;;;;;3.40;3.10;;;1.80;99.90;;;;;;4984667;28;20194;-77
2021/12/08 02:52:49;;;;;;;4.40;3.10;;;1.70;99.90;;;;;;4985720;28;20275;-77
2021/12/08 02:55:16;;;;;;;3.33;2.95;;;1.70;99.90;;;;;;4975684;28;20717;-78
2021/12/08 02:57:43;;;;;;;3.30;3.00;;;1.60;99.90;;;;;;4981730;28;20220;-77
2021/12/08 03:00:13;;;;;;;4.03;3.40;;;1.60;99.90;;;;;;4988388;28;20203;-78
2021/12/08 03:02:40;;;;;;;4.95;3.70;;;1.60;99.90;;;;;;4980257;28;20195;-78
2021/12/08 03:05:08;;;;;;;4.20;3.42;;;1.70;99.90;;;;;;4987773;28;20206;-77
2021/12/08 03:07:35;;;;;;;4.22;2.88;;;1.60;99.90;;;;;;4985089;28;20223;-78
2021/12/08 03:10:07;;;;;;;3.70;3.40;;;1.60;99.90;;;;;;4981455;28;20204;-77
2021/12/08 03:12:34;;;;;;;3.50;3.20;;;1.60;99.90;;;;;;4973177;28;20211;-77
2021/12/08 03:15:01;;;;;;;3.92;3.30;;;1.60;99.90;;;;;;4990456;28;20199;-77
2021/12/08 03:17:28;;;;;;;3.50;3.13;;;1.60;99.90;;;;;;4981981;28;20222;-77
2021/12/08 03:19:55;;;;;;;4.15;3.78;;;1.60;99.90;;;;;;4971724;28;20318;-78
2021/12/08 03:22:23;;;;;;;3.47;3.10;;;1.60;99.90;;;;;;4989725;28;20210;-77
2021/12/08 03:24:52;;;;;;;4.20;3.50;;;1.60;99.90;;;;;;4990444;28;20265;-78
2021/12/08 03:27:26;;;;;;;3.05;2.67;;;1.60;99.90;;;;;;4985494;28;20220;-78
2021/12/08 03:29:56;;;;;;;3.97;3.25;;;1.70;99.90;;;;;;4979625;28;20229;-78
2021/12/08 03:32:30;;;;;;;5.13;3.80;;;1.70;99.90;;;;;;4982017;28;20211;-77
2021/12/08 03:34:57;;;;;;;3.75;3.00;;;1.70;99.90;;;;;;4990875;28;20222;-77
2021/12/08 03:37:27;;;;;;;4.80;3.67;;;1.70;99.90;;;;;;4981681;28;20215;-78
2021/12/08 03:39:55;;;;;;;5.57;3.95;;;1.70;99.90;;;;;;4992897;28;20345;-78
2021/12/08 03:42:27;;;;;;;3.58;3.28;;;1.70;99.90;;;;;;4994353;28;20725;-77
2021/12/08 03:44:57;;;;;;;3.85;3.47;;;1.70;99.90;;;;;;4976370;28;20196;-78
2021/12/08 03:47:28;;;;;;;5.28;4.05;;;1.70;99.90;;;;;;4988284;28;20353;-77
2021/12/08 03:49:58;;;;;;;4.88;3.80;;;1.70;99.90;;;;;;4987709;28;20647;-78
2021/12/08 03:52:25;;;;;;;4.30;3.63;;;1.80;99.90;;;;;;4995534;28;20282;-78
2021/12/08 03:54:52;;;;;;;4.63;3.72;;;1.80;99.90;;;;;;4985565;28;20224;-77
2021/12/08 03:57:19;;;;;;;5.63;4.10;;;1.80;99.90;;;;;;4992945;28;20215;-77
2021/12/08 03:59:48;;;;;;;4.13;3.55;;;1.80;99.90;;;;;;4991822;28;20227;-78
2021/12/08 04:02:15;;;;;;;4.10;3.58;;;1.80;99.90;;;;;;4994129;28;20294;-78
2021/12/08 04:04:45;;;;;;;4.50;4.10;;;1.90;99.90;;;;;;4993136;28;20203;-78
2021/12/08 04:07:14;;;;;;;4.43;4.03;;;1.90;99.90;;;;;;4988820;28;20713;-78
2021/12/08 04:09:44;;;;;;;4.10;3.80;;;1.90;99.90;;;;;;4985619;28;20214;-78
2021/12/08 04:12:13;;;;;;;5.10;4.60;;;2.00;99.90;;;;;;4994327;28;20290;-78
2021/12/08 04:14:43;;;;;;;4.68;4.20;;;2.00;99.90;;;;;;4981334;28;20279;-77
2021/12/08 04:17:14;;;;;;;6.75;4.43;;;2.00;99.90;;;;;;4982117;28;20224;-78
2021/12/08 04:19:43;;;;;;;4.97;4.28;;;2.00;99.90;;;;;;4985982;28;20675;-77
2021/12/08 04:22:15;;;;;;;5.75;5.25;;;2.10;99.90;;;;;;4985750;28;20200;-78
2021/12/08 04:24:44;;;;;;;6.97;4.80;;;2.10;99.90;;;;;;4993845;28;20203;-78
2021/12/08 04:27:14;;;;;;;6.22;4.75;;;2.10;99.90;;;;;;4985972;28;20235;-78
2021/12/08 04:29:43;;;;;;;8.05;5.20;;;2.10;99.90;;;;;;4992869;28;20219;-78
2021/12/08 04:32:14;;;;;;;6.28;5.13;;;2.10;99.90;;;;;;4990985;28;20222;-78
2021/12/08 04:34:45;;;;;;;7.30;5.60;;;2.20;99.90;;;;;;4993637;28;20200;-78
2021/12/08 04:37:20;;;;;;;7.07;5.82;;;2.20;99.90;;;;;;4991648;28;20274;-78
2021/12/08 04:39:58;;;;;;;6.10;5.45;;;2.30;99.90;;;;;;4978858;28;20223;-78
2021/12/08 04:42:39;;;;;;;7.45;6.07;;;2.30;99.90;;;;;;4992509;28;20210;-78
2021/12/08 04:45:14;;;;;;;6.38;5.20;;;2.40;99.90;;;;;;4990491;28;20207;-78
2021/12/08 04:48:04;;;;;;;8.55;6.55;;;2.40;99.90;;;;;;4989319;28;20697;-78
2021/12/08 04:50:47;;;;;;;7.85;7.15;;;2.40;99.90;;;;;;4980767;28;20608;-78
2021/12/08 04:53:32;;;;;;;8.63;7.00;;;2.40;99.90;;;;;;4990687;28;20195;-78
2021/12/08 05:02:03;;;;;;;8.65;6.97;;;2.60;99.90;;;;;;4919903;29;20210;-78
2021/12/08 05:04:42;;;;;;;8.05;7.13;;;2.60;99.90;;;;;;4965336;28;20198;-77
2021/12/08 05:07:29;;;;;;;8.18;7.18;;;2.70;99.90;;;;;;4980141;28;20578;-78
2021/12/08 05:09:57;;;;;;;9.68;8.75;;;2.70;99.90;;;;;;4984643;28;20207;-78
2021/12/08 05:12:28;;;;;;;11.02;8.75;;;2.80;99.90;;;;;;4980569;28;20702;-78
2021/12/08 05:15:00;;;;;;;10.60;9.00;;;2.80;99.90;;;;;;4974776;28;20208;-78
2021/12/08 05:17:33;;;;;;;9.95;8.95;;;2.80;99.90;;;;;;4981658;28;20748;-78
2021/12/08 05:20:07;;;;;;;11.65;10.00;;;2.80;99.90;;;;;;4979158;28;20299;-78
2021/12/08 05:22:41;;;;;;;13.05;9.05;;;2.80;99.90;;;;;;4980388;28;20206;-77
2021/12/08 05:25:14;;;;;;;11.50;9.65;;;2.90;99.90;;;;;;4983669;28;20298;-79
2021/12/08 05:27:46;;;;;;;11.65;10.45;;;2.90;99.90;;;;;;4981056;28;20219;-79
2021/12/08 05:30:18;;;;;;;12.07;10.98;;;2.90;99.90;;;;;;4983636;28;20204;-79
2021/12/08 05:32:45;;;;;;;12.23;11.00;;;2.90;99.90;;;;;;4983257;28;20219;-79
2021/12/08 05:35:15;;;;;;;13.57;12.23;;;3.00;99.90;;;;;;4984388;28;20234;-79
2021/12/08 05:37:42;;;;;;;15.02;11.70;;;3.00;99.90;;;;;;4985057;28;20211;-79
2021/12/08 05:40:13;;;;;;;13.73;11.82;;;3.00;99.90;;;;;;4991418;28;20241;-79
2021/12/08 05:42:40;;;;;;;13.32;12.02;;;3.00;99.90;;;;;;4984327;28;20227;-79
2021/12/08 05:45:10;;;;;;;17.25;14.05;;;3.00;99.90;;;;;;4978133;28;20318;-79
2021/12/08 05:47:38;;;;;;;14.05;12.55;;;3.10;99.90;;;;;;4989310;28;20302;-79
2021/12/08 05:50:06;;;;;;;20.08;15.75;;;3.10;99.90;;;;;;4984488;28;20195;-80
2021/12/08 05:52:35;;;;;;;15.80;14.10;;;3.10;99.90;;;;;;4973479;28;20655;-79
2021/12/08 05:55:03;;;;;;;16.17;14.48;;;3.10;99.90;;;;;;4974395;28;20203;-79
2021/12/08 05:57:34;;;;;;;16.05;12.57;;;3.10;99.90;;;;;;4967710;28;20269;-82
2021/12/08 06:00:04;;;;;;;16.05;14.35;;;3.20;99.90;;;;;;4970583;28;20595;-80
2021/12/08 06:02:35;;;;;;;15.30;13.73;;;3.20;99.90;;;;;;4980640;28;20188;-79
2021/12/08 06:05:02;;;;;;;14.45;12.98;;;3.30;99.90;;;;;;4979560;28;20297;-81
2021/12/08 06:07:29;;;;;;;15.05;13.52;;;3.30;99.90;;;;;;4989658;28;20219;-81
2021/12/08 06:10:01;;;;;;;14.57;13.07;;;3.30;99.90;;;;;;4987570;28;20199;-80
2021/12/08 06:12:28;;;;;;;16.77;13.93;;;3.30;99.90;;;;;;4978652;28;20207;-80
2021/12/08 06:14:56;;;;;;;13.98;12.68;;;3.40;99.90;;;;;;4982280;28;20215;-80
2021/12/08 06:17:27;;;;;;;16.42;14.50;;;3.30;99.90;;;;;;4990155;28;20219;-80
2021/12/08 06:19:55;;;;;;;16.92;14.85;;;3.30;99.90;;;;;;4985664;28;20258;-80
2021/12/08 06:22:24;;;;;;;14.60;13.20;;;3.30;99.90;;;;;;4982873;28;20203;-80
2021/12/08 06:24:52;;;;;;;17.75;16.00;;;3.30;99.90;;;;;;4981062;28;20642;-80
2021/12/08 06:27:20;;;;;;;23.55;16.80;;;3.30;99.90;;;;;;4990851;28;20231;-80
2021/12/08 06:29:49;;;;;;;17.75;14.88;;;3.30;99.90;;;;;;4983681;28;20195;-87
2021/12/08 06:32:17;;;;;;;18.23;14.95;;;3.30;99.90;;;;;;4963601;28;20333;-80
2021/12/08 06:34:47;;;;;;;16.40;14.63;;;3.20;99.90;;;;;;4989357;28;20195;-80
2021/12/08 06:37:18;;;;;;;19.80;16.33;;;3.20;99.90;;;;;;4990358;28;20307;-80
2021/12/08 06:39:50;;;;;;;16.33;14.20;;;3.20;99.90;;;;;;4979899;28;20306;-80
2021/12/08 06:42:22;;;;;;;18.50;15.98;;;3.20;99.90;;;;;;4979397;28;20250;-80
2021/12/08 06:44:51;;;;;;;20.77;16.90;;;3.20;99.90;;;;;;4988633;28;20664;-80
2021/12/08 06:47:22;;;;;;;16.08;14.57;;;3.20;99.90;;;;;;4979937;28;20234;-80
2021/12/08 06:49:52;;;;;;;13.68;12.27;;;3.20;99.90;;;;;;4977318;28;20799;-80
2021/12/08 06:52:23;;;;;;;14.93;13.40;;;3.30;99.90;;;;;;4987833;28;20671;-80
2021/12/08 06:54:53;;;;;;;15.82;14.10;;;3.40;99.90;;;;;;4979881;28;20196;-80
2021/12/08 06:57:24;;;;;;;14.52;13.02;;;3.40;99.90;;;;;;4989355;28;20229;-80
2021/12/08 06:59:58;;;;;;;14.60;13.02;;;3.40;99.90;;;;;;4985397;28;20232;-80
2021/12/08 07:05:29;;;;;;;16.02;12.10;;;3.50;99.90;;;;;;4960197;28;20702;-80
2021/12/08 07:08:02;;;;;;;16.33;13.30;;;3.50;99.90;;;;;;4973200;28;21066;-81
2021/12/08 07:10:32;;;;;;;14.15;12.65;;;3.50;99.90;;;;;;4975114;28;20199;-80
2021/12/08 07:13:04;;;;;;;16.48;13.63;;;3.50;99.90;;;;;;4985080;28;20250;-80
2021/12/08 07:15:35;;;;;;;16.23;14.50;;;3.50;99.90;;;;;;4970991;28;20203;-80
2021/12/08 07:18:08;;;;;;;15.93;14.25;;;3.60;99.90;;;;;;4985343;28;20214;-81
2021/12/08 07:20:45;;;;;;;18.33;14.00;;;3.60;99.90;;;;;;4980906;28;20230;-81
2021/12/08 07:23:21;;;;;;;16.75;14.00;;;3.50;99.90;;;;;;4988081;28;20558;-80
2021/12/08 07:25:50;;;;;;;20.98;15.00;;;3.60;99.90;;;;;;4984793;28;20684;-80
2021/12/08 07:28:20;;;;;;;18.10;16.23;;;3.60;99.90;;;;;;4983356;28;20677;-80
2021/12/08 07:30:50;;;;;;;22.20;16.35;;;3.60;99.90;;;;;;4981708;28;20234;-80
2021/12/08 07:33:17;;;;;;;19.38;16.45;;;3.60;99.90;;;;;;4988047;28;20199;-80
2021/12/08 07:35:47;;;;;;;18.48;16.10;;;3.60;99.90;;;;;;4986560;28;20195;-80
2021/12/08 07:38:17;;;;;;;18.70;15.70;;;3.60;99.90;;;;;;4991515;28;20289;-80
2021/12/08 07:40:52;;;;;;;19.67;14.80;;;3.70;99.90;;;;;;4988467;28;20223;-80
2021/12/08 07:43:25;;;;;;;16.77;14.90;;;3.70;99.90;;;;;;4986226;28;20203;-80
2021/12/08 07:46:02;;;;;;;21.45;17.17;;;3.70;99.90;;;;;;4982566;28;20689;-80
2021/12/08 07:48:35;;;;;;;16.77;14.38;;;3.70;99.90;;;;;;4988466;28;20599;-80
2021/12/08 07:51:06;;;;;;;17.95;15.05;;;3.70;99.90;;;;;;4988468;28;20265;-80
2021/12/08 07:53:34;;;;;;;15.48;13.95;;;3.80;99.90;;;;;;4990380;28;20288;-80
2021/12/08 07:56:04;;;;;;;17.58;15.75;;;3.70;99.90;;;;;;4987408;28;20655;-80
2021/12/08 07:58:35;;;;;;;17.38;15.52;;;3.80;99.90;;;;;;4977000;28;20235;-80
2021/12/08 08:01:06;;;;;;;18.13;15.82;;;3.80;99.90;;;;;;4984851;28;20274;-80
2021/12/08 08:03:35;;;;;;;20.75;15.32;;;3.80;99.90;;;;;;4981057;28;20286;-80
2021/12/08 08:06:06;;;;;;;17.25;14.15;;;3.80;99.90;;;;;;4985788;28;20200;-80
2021/12/08 08:08:35;;;;;;;15.68;14.00;;;3.80;99.90;;;;;;4990114;28;20195;-80
2021/12/08 08:11:06;;;;;;;18.05;15.20;;;3.80;99.90;;;;;;4988595;28;20214;-80
2021/12/08 08:13:36;;;;;;;15.38;13.77;;;3.80;99.90;;;;;;4992035;28;20205;-80
2021/12/08 08:16:06;;;;;;;15.82;14.27;;;3.80;99.90;;;;;;4990185;28;20306;-80
2021/12/08 08:18:37;;;;;;;17.83;15.90;;;3.80;99.90;;;;;;4990766;28;20898;-80
2021/12/08 08:21:09;;;;;;;16.08;14.35;;;3.80;99.90;;;;;;4992949;28;20610;-80
2021/12/08 08:23:37;;;;;;;17.05;15.30;;;3.90;99.90;;;;;;4978246;28;20648;-80
2021/12/08 08:26:07;;;;;;;18.38;15.80;;;3.90;99.90;;;;;;4986448;28;20223;-80
2021/12/08 08:28:36;;;;;;;20.75;17.23;;;3.90;99.90;;;;;;4983787;28;20643;-80
2021/12/08 08:31:07;;;;;;;16.20;14.55;;;4.00;99.90;;;;;;4982339;28;20208;-80
2021/12/08 08:33:36;;;;;;;17.05;15.25;;;4.00;99.90;;;;;;4984412;28;20282;-80
2021/12/08 08:36:07;;;;;;;15.68;14.18;;;4.00;99.90;;;;;;4990325;28;20306;-80
2021/12/08 08:38:37;;;;;;;15.32;13.88;;;4.00;99.90;;;;;;4991889;28;20683;-80
2021/12/08 08:41:09;;;;;;;15.65;13.88;;;4.00;99.90;;;;;;4981251;28;20235;-80
2021/12/08 08:43:37;;;;;;;15.57;13.98;;;4.00;99.90;;;;;;4989724;28;20660;-80
2021/12/08 08:46:10;;;;;;;15.43;13.93;;;4.10;99.90;;;;;;4992605;28;20226;-80
2021/12/08 08:48:41;;;;;;;15.40;13.90;;;4.10;99.90;;;;;;4993252;28;20204;-80
2021/12/08 08:51:15;;;;;;;13.80;12.48;;;4.20;99.90;;;;;;4991217;28;20200;-80
2021/12/08 08:53:44;;;;;;;14.15;12.85;;;4.30;99.90;;;;;;4982552;28;20290;-80
2021/12/08 08:56:24;;;;;;;14.40;13.00;;;4.30;99.90;;;;;;4984433;28;20595;-81
2021/12/08 08:58:58;;;;;;;14.57;13.18;;;4.40;99.90;;;;;;4987533;28;20195;-80
2021/12/08 09:01:29;;;;;;;14.77;13.27;;;4.40;99.90;;;;;;4987448;28;20289;-81
2021/12/08 09:03:59;;;;;;;14.60;13.20;;;4.40;99.90;;;;;;4986509;28;20210;-80
2021/12/08 09:06:29;;;;;;;14.77;13.30;;;4.40;99.90;;;;;;4992207;28;20712;-80
2021/12/08 09:08:57;;;;;;;14.45;13.05;;;4.40;99.90;;;;;;4993169;28;20306;-80
2021/12/08 09:11:27;;;;;;;14.63;12.60;;;4.40;99.90;;;;;;4988203;28;20214;-81
2021/12/08 09:14:02;;;;;;;16.25;14.60;;;4.40;99.90;;;;;;4985837;28;20210;-80
2021/12/08 09:16:35;;;;;;;14.93;13.35;;;4.40;99.90;;;;;;4980226;28;20341;-80
2021/12/08 09:19:11;;;;;;;13.20;11.80;;;4.40;99.90;;;;;;4984659;28;20558;-82
2021/12/08 09:21:43;;;;;;;13.25;11.82;;;4.50;99.90;;;;;;4983076;28;20253;-82
2021/12/08 09:24:14;;;;;;;13.00;11.70;;;4.50;99.90;;;;;;4991267;28;20199;-81
2021/12/08 09:26:49;;;;;;;13.73;12.40;;;4.60;99.90;;;;;;4988789;28;20219;-81
2021/12/08 09:29:22;;;;;;;12.45;11.25;;;4.60;99.90;;;;;;4986672;28;20297;-81
2021/12/08 09:32:08;;;;;;;12.65;11.45;;;4.70;99.90;;;;;;4985422;28;20218;-81
2021/12/08 09:34:41;;;;;;;12.23;10.98;;;4.70;99.90;;;;;;4987195;28;20192;-81
2021/12/08 09:37:12;;;;;;;12.70;11.43;;;4.80;99.90;;;;;;4989481;28;20211;-81
2021/12/08 09:39:42;;;;;;;12.52;11.40;;;4.80;99.90;;;;;;4987288;28;20283;-81
2021/12/08 09:42:13;;;;;;;11.57;10.25;;;4.80;99.90;;;;;;4984454;28;20583;-81
2021/12/08 09:44:44;;;;;;;12.20;11.07;;;4.80;99.90;;;;;;4987841;28;20226;-81
2021/12/08 09:47:11;;;;;;;12.82;11.15;;;4.80;99.90;;;;;;4987945;28;20277;-82
2021/12/08 09:49:39;;;;;;;13.13;11.82;;;4.90;99.90;;;;;;4984403;28;20203;-82
2021/12/08 09:52:08;;;;;;;12.43;11.23;;;4.80;99.90;;;;;;4988909;28;20207;-79
2021/12/08 09:54:37;;;;;;;13.60;10.35;;;4.90;99.90;;;;;;4987921;28;20215;-80
2021/12/08 09:57:07;;;;;;;11.20;10.02;;;4.90;99.90;;;;;;4977522;28;20263;-81
2021/12/08 09:59:35;;;;;;;13.30;11.95;;;5.00;99.90;;;;;;4986874;28;20220;-81
2021/12/08 10:02:08;;;;;;;11.40;9.95;;;5.00;99.90;;;;;;4982422;28;20231;-82
2021/12/08 10:04:35;;;;;;;10.73;9.82;;;5.10;99.90;;;;;;4980884;28;20289;-82
2021/12/08 10:07:03;;;;;;;12.27;10.73;;;5.10;99.90;;;;;;4991761;28;20314;-82
2021/12/08 10:09:30;;;;;;;12.75;11.55;;;5.20;99.90;;;;;;4979223;28;20221;-82
2021/12/08 10:11:57;;;;;;;10.30;9.40;;;5.20;99.90;;;;;;4987087;28;20200;-82
2021/12/08 10:14:24;;;;;;;12.15;10.85;;;5.30;99.90;;;;;;4984090;28;20282;-82
2021/12/08 10:16:54;;;;;;;12.40;11.15;;;5.30;99.90;;;;;;4988491;28;20294;-81
2021/12/08 10:19:23;;;;;;;10.45;9.55;;;5.30;99.90;;;;;;4983200;28;20207;-82
2021/12/08 10:21:50;;;;;;;11.60;10.50;;;5.40;99.90;;;;;;4981638;28;20211;-81
2021/12/08 10:24:20;;;;;;;9.90;8.88;;;5.40;99.90;;;;;;4981512;28;20195;-82
2021/12/08 10:26:50;;;;;;;12.00;10.70;;;5.20;99.90;;;;;;4985330;28;20306;-82
2021/12/08 10:29:24;;;;;;;10.73;9.73;;;5.10;99.90;;;;;;4983953;28;20302;-82
2021/12/08 10:31:53;;;;;;;10.65;8.88;;;5.10;99.90;;;;;;4979595;28;20306;-82
2021/12/08 10:34:24;;;;;;;9.77;8.98;;;5.10;99.90;;;;;;4985977;28;20200;-82
2021/12/08 10:36:55;;;;;;;10.93;9.90;;;5.10;99.90;;;;;;4977095;28;20338;-82
2021/12/08 10:39:26;;;;;;;10.00;9.10;;;5.10;99.90;;;;;;4982552;28;20195;-81
2021/12/08 10:42:04;;;;;;;11.15;10.15;;;5.20;99.90;;;;;;4994557;28;20593;-82
2021/12/08 10:44:40;;;;;;;10.73;9.82;;;5.30;99.90;;;;;;5011754;28;20549;-82
2021/12/08 10:47:09;;;;;;;10.73;9.63;;;5.30;99.90;;;;;;4988753;28;20696;-82
2021/12/08 10:55:18;;;;;;;11.55;10.45;;;5.30;99.90;;;;;;4988476;28;20286;-81
2021/12/08 10:57:47;;;;;;;10.77;9.77;;;5.30;99.90;;;;;;4989328;28;20631;-81
2021/12/08 11:00:18;;;;;;;11.40;10.35;;;5.30;99.90;;;;;;4988652;28;20294;-82
2021/12/08 11:02:50;;;;;;;14.65;11.02;;;5.30;99.90;;;;;;4972402;28;20203;-81
2021/12/08 11:05:52;;;;;;;13.23;12.05;;;5.40;99.90;;;;;;4982760;28;20647;-82
2021/12/08 11:08:28;;;;;;;11.88;9.80;;;5.40;99.90;;;;;;4882176;29;20288;-81
2021/12/08 11:10:59;;;;;;;11.50;10.40;;;5.50;99.90;;;;;;4996617;22;20226;-80
2021/12/08 11:13:28;;;;;;;10.23;9.32;;;5.50;99.90;;;;;;5006740;28;20190;-79
2021/12/08 11:16:03;;;;;;;10.07;9.15;;;5.60;99.90;;;;;;5006426;28;20309;-79
2021/12/08 11:18:30;;;;;;;10.38;9.38;;;5.60;99.90;;;;;;5007171;28;20243;-79
2021/12/08 11:21:01;;;;;;;10.43;9.43;;;5.70;99.90;;;;;;5009454;28;20718;-79
2021/12/08 11:23:41;;;;;;;16.67;13.90;;;5.70;99.90;;;;;;5010843;28;20199;-79
2021/12/08 11:26:22;;;;;;;16.00;14.40;;;5.70;99.90;;;;;;5009536;28;20697;-78
2021/12/08 11:28:57;;;;;;;9.63;8.68;;;5.80;99.90;;;;;;5009113;28;20205;-79
2021/12/08 11:31:28;;;;;;;8.70;7.93;;;5.80;99.90;;;;;;5009822;28;20713;-79
2021/12/08 11:34:00;;;;;;;10.45;9.45;;;5.80;99.90;;;;;;5010830;28;20246;-79
2021/12/08 11:36:30;;;;;;;10.38;9.48;;;5.90;99.90;;;;;;5006774;28;20275;-79
2021/12/08 11:38:58;;;;;;;8.85;8.15;;;5.90;99.90;;;;;;5009755;28;20523;-79
2021/12/08 11:41:35;;;;;;;9.82;8.77;;;5.90;99.90;;;;;;5008899;28;20593;-79
2021/12/08 11:44:06;;;;;;;9.70;8.60;;;5.90;99.90;;;;;;5005732;28;20209;-81
2021/12/08 11:46:39;;;;;;;9.10;8.30;;;5.90;99.90;;;;;;5005738;28;20219;-79
2021/12/08 11:49:08;;;;;;;9.63;8.73;;;5.90;99.90;;;;;;5000661;28;20211;-79
2021/12/08 11:52:00;;;;;;;10.27;9.27;;;5.90;99.90;;;;;;5001825;28;20202;-79
2021/12/08 11:54:34;;;;;;;8.20;7.45;;;6.00;99.90;;;;;;5006114;28;20593;-77
2021/12/08 11:57:10;;;;;;;8.35;7.55;;;6.00;99.90;;;;;;4993790;28;20225;-80
2021/12/08 11:59:47;;;;;;;8.13;7.38;;;6.10;99.90;;;;;;5002545;28;20289;-79
2021/12/08 12:02:15;;;;;;;8.27;7.57;;;6.20;99.90;;;;;;5008563;28;20322;-79
2021/12/08 12:04:42;;;;;;;8.65;7.95;;;6.20;99.90;;;;;;5011507;28;20214;-79
2021/12/08 12:07:10;;;;;;;11.98;8.65;;;6.40;99.90;;;;;;5008179;28;20218;-79
2021/12/08 12:09:39;;;;;;;8.77;7.97;;;6.50;99.90;;;;;;5010315;28;20254;-79
2021/12/08 12:12:07;;;;;;;9.48;7.45;;;6.60;99.90;;;;;;5009987;28;20562;-79
2021/12/08 12:14:34;;;;;;;7.90;7.18;;;6.60;99.90;;;;;;4995732;28;20204;-79
2021/12/08 12:17:02;;;;;;;6.82;6.30;;;6.60;99.90;;;;;;5007642;28;20226;-79
2021/12/08 12:19:36;;;;;;;7.15;6.45;;;6.60;99.90;;;;;;5011531;28;20329;-79
2021/12/08 12:22:13;;;;;;;7.45;6.85;;;6.60;99.90;;;;;;4995185;28;20229;-79
2021/12/08 12:24:57;;;;;;;6.72;6.10;;;6.60;99.90;;;;;;5001067;28;20206;-79
2021/12/08 12:27:39;;;;;;;7.47;6.78;;;6.70;99.90;;;;;;5005995;28;20190;-80
2021/12/08 12:30:17;;;;;;;7.38;6.68;;;6.70;99.90;;;;;;5006029;28;20289;-80
2021/12/08 12:32:48;;;;;;;7.95;7.25;;;6.70;99.90;;;;;;5000477;28;20289;-79
2021/12/08 12:35:19;;;;;;;7.03;6.43;;;6.70;99.90;;;;;;5006114;28;20231;-79
2021/12/08 12:37:48;;;;;;;7.57;6.88;;;6.60;99.90;;;;;;5011276;28;20207;-79
2021/12/08 12:40:29;;;;;;;8.20;7.45;;;6.60;99.90;;;;;;5009986;28;20293;-80
2021/12/08 12:42:58;;;;;;;7.45;6.75;;;6.60;99.90;;;;;;5011043;28;20320;-79
2021/12/08 12:45:26;;;;;;;7.70;7.10;;;6.70;99.90;;;;;;5011414;28;20305;-79
2021/12/08 12:48:18;;;;;;;7.65;6.85;;;6.70;99.90;;;;;;5011312;28;20195;-80
2021/12/08 12:50:54;;;;;;;8.48;7.63;;;6.80;99.90;;;;;;4998540;28;20617;-80
2021/12/08 12:53:45;;;;;;;7.05;6.35;;;6.90;99.90;;;;;;5007965;28;20222;-79
2021/12/08 12:56:18;;;;;;;7.10;6.40;;;6.80;99.90;;;;;;5008190;28;20234;-79
2021/12/08 12:58:48;;;;;;;7.40;6.70;;;6.70;99.90;;;;;;5012468;28;20202;-79
2021/12/08 13:01:18;;;;;;;8.68;7.03;;;6.70;99.90;;;;;;5011098;28;20234;-79
2021/12/08 13:03:51;;;;;;;7.25;6.55;;;6.60;99.90;;;;;;5012432;28;20195;-79
2021/12/08 13:06:40;;;;;;;7.15;6.38;;;6.60;99.90;;;;;;5010795;28;20222;-81
2021/12/08 13:09:09;;;;;;;7.63;6.75;;;6.60;99.90;;;;;;4999644;28;20198;-80
2021/12/08 13:11:57;;;;;;;7.47;6.78;;;6.60;99.90;;;;;;5002314;28;20203;-79
2021/12/08 13:14:28;;;;;;;7.75;7.05;;;6.70;99.90;;;;;;5007777;28;20260;-79
2021/12/08 13:17:23;;;;;;;6.80;6.20;;;6.70;99.90;;;;;;5010972;28;20230;-79
2021/12/08 13:19:54;;;;;;;7.25;6.55;;;6.80;99.90;;;;;;5000172;28;20333;-79
2021/12/08 13:22:45;;;;;;;7.07;6.40;;;6.80;99.90;;;;;;5006779;28;20313;-74
2021/12/08 13:25:59;;;;;;;7.13;6.45;;;6.80;99.90;;;;;;4994457;28;20222;-79
2021/12/08 13:28:44;;;;;;;6.80;6.30;;;6.80;99.90;;;;;;5001753;28;20195;-78
2021/12/08 13:31:18;;;;;;;6.82;6.22;;;6.80;99.90;;;;;;5002173;28;20205;-79
2021/12/08 13:33:54;;;;;;;6.50;5.90;;;6.80;99.90;;;;;;4999829;28;20329;-80
2021/12/08 13:36:33;;;;;;;6.60;6.05;;;6.80;99.90;;;;;;5002470;28;20596;-79
2021/12/08 13:39:13;;;;;;;7.65;6.97;;;6.80;99.90;;;;;;4998648;28;20202;-80
2021/12/08 13:41:52;;;;;;;6.95;6.25;;;6.80;99.90;;;;;;5005187;28;20210;-80